This is the latest recevied weather packets stored in our database for station/object HUGOCO. If no packets are shown the sender has not sent any weather packets the latest 10 day(s).
| Time | Temp. | Humidity | Pressure | Rain* | Wind** | Luminosity | Snow |
|---|---|---|---|---|---|---|---|
| 1777806966 | 10° C | 45% | 1015.3 hPa | 0 mm | - | - | - |
| 1777806666 | 10° C | 45% | 1015.3 hPa | 0 mm | - | - | - |
| 1777806366 | 9.44° C | 46% | 1015.4 hPa | 0 mm | - | - | - |
| 1777806066 | 10° C | 43% | 1015.5 hPa | 0 mm | - | - | - |
| 1777805766 | 10.56° C | 43% | 1015.6 hPa | 0 mm | - | - | - |
| 1777805466 | 10° C | 43% | 1015.6 hPa | 0 mm | - | - | - |
| 1777805166 | 10° C | 42% | 1015.7 hPa | 0 mm | - | - | - |
| 1777804866 | 10° C | 40% | 1015.7 hPa | 0 mm | - | - | - |
| 1777804566 | 10.56° C | 40% | 1015.8 hPa | 0 mm | - | - | - |
| 1777804266 | 11.11° C | 36% | 1015.7 hPa | 0 mm | - | - | - |
| 1777803966 | 10.56° C | 38% | 1015.9 hPa | 0 mm | - | - | - |
| 1777803666 | 10° C | 37% | 1016 hPa | 0 mm | - | - | - |
| 1777803366 | 9.44° C | 39% | 1015.9 hPa | 0 mm | - | - | - |
| 1777803253 | 9.44° C | 40% | 1016.1 hPa | 0 mm | - | - | - |
| 1777803066 | 9.44° C | 40% | 1016.1 hPa | 0 mm | - | - | - |
| 1777802766 | 9.44° C | 40% | 1016.1 hPa | 0 mm | - | - | - |
| 1777802466 | 9.44° C | 40% | 1016.1 hPa | 0 mm | - | - | - |
| 1777802166 | 9.44° C | 40% | 1016.2 hPa | 0 mm | - | - | - |
| 1777801866 | 8.89° C | 41% | 1016.3 hPa | 0 mm | - | - | - |
| 1777801566 | 8.89° C | 43% | 1016.3 hPa | 0 mm | - | - | - |
| 1777801266 | 8.89° C | 44% | 1016.5 hPa | 0 mm | - | - | - |
| 1777800966 | 8.33° C | 45% | 1016.4 hPa | 0 mm | - | - | - |
| 1777800666 | 7.78° C | 46% | 1016.5 hPa | 0 mm | - | - | - |
| 1777800366 | 7.22° C | 49% | 1016.4 hPa | 0 mm | - | - | - |
| 1777800066 | 7.22° C | 50% | 1016.4 hPa | 0 mm | - | - | - |
* Rain latest hour (hover to see other rain measurements)
** Current wind speed in m/s (hover to see current wind gust speed)